createdAt,value
2023-04-08T00:03:25.296Z,23.50
2023-04-08T00:06:52.331Z,23.20
2023-04-08T00:10:19.521Z,21.60
2023-04-08T00:13:46.474Z,22.10
2023-04-08T00:17:13.417Z,22.80
2023-04-08T00:20:40.502Z,20.10
2023-04-08T00:24:08.321Z,22.70
2023-04-08T00:27:35.097Z,19.30
2023-04-08T00:31:02.184Z,21.80
2023-04-08T00:34:30.670Z,21.90
2023-04-08T00:37:57.592Z,22.10
2023-04-08T00:41:24.683Z,19.40
2023-04-08T00:44:51.639Z,19.30
2023-04-08T00:48:19.184Z,20.30
2023-04-08T00:51:46.006Z,20.90
2023-04-08T00:55:13.033Z,20.40
2023-04-08T00:58:40.735Z,20.90
2023-04-08T01:02:16.668Z,20.50
2023-04-08T01:05:54.760Z,22.40
2023-04-08T01:09:26.511Z,22.10
2023-04-08T01:12:57.323Z,21.70
2023-04-08T01:16:26.295Z,19.80
2023-04-08T01:19:55.280Z,21.00
2023-04-08T01:23:40.537Z,23.10
2023-04-08T01:27:08.847Z,22.20
2023-04-08T01:30:39.114Z,21.60
2023-04-08T01:34:07.606Z,23.60
2023-04-08T01:37:37.012Z,22.30
2023-04-08T01:41:05.724Z,24.00
2023-04-08T01:44:34.085Z,23.60
2023-04-08T01:48:02.482Z,23.80
2023-04-08T01:51:33.051Z,23.80
2023-04-08T01:55:00.897Z,23.60
2023-04-08T01:58:33.157Z,22.90
2023-04-08T02:02:02.237Z,22.50
2023-04-08T02:05:29.499Z,23.50
2023-04-08T02:08:57.889Z,22.50
2023-04-08T02:12:26.475Z,23.60
2023-04-08T02:15:58.375Z,23.10
2023-04-08T02:19:30.827Z,25.10
2023-04-08T02:23:04.790Z,23.00
2023-04-08T02:26:34.659Z,25.30
2023-04-08T02:33:28.928Z,21.00
2023-04-08T02:36:57.929Z,26.20
2023-04-08T02:40:30.394Z,23.70
2023-04-08T02:43:57.576Z,24.40
2023-04-08T02:47:24.770Z,27.10
2023-04-08T02:50:51.885Z,25.80
2023-04-08T02:54:18.666Z,26.10
2023-04-08T02:57:45.767Z,24.10
2023-04-08T03:01:13.196Z,24.10
2023-04-08T03:04:40.079Z,28.30
2023-04-08T03:08:08.024Z,22.30
2023-04-08T03:11:35.058Z,29.30
2023-04-08T03:15:03.703Z,28.10
2023-04-08T03:18:30.688Z,26.40
2023-04-08T03:21:57.614Z,25.60
2023-04-08T03:25:24.640Z,28.50
2023-04-08T03:28:51.704Z,28.00
2023-04-08T03:32:18.852Z,30.40
2023-04-08T03:35:46.228Z,28.60
2023-04-08T03:39:13.137Z,30.10
2023-04-08T03:42:40.335Z,29.80
2023-04-08T03:46:07.101Z,31.70
2023-04-08T03:49:33.955Z,29.20
2023-04-08T03:53:01.111Z,29.60
2023-04-08T03:56:28.273Z,30.40
2023-04-08T03:59:55.519Z,29.90
2023-04-08T04:03:23.087Z,29.20
2023-04-08T04:06:50.049Z,31.30
2023-04-08T04:10:17.418Z,29.80
2023-04-08T04:13:44.554Z,34.90
2023-04-08T04:17:11.447Z,37.40
2023-04-08T04:20:40.869Z,56.10
2023-04-08T04:24:08.642Z,40.60
2023-04-08T04:27:35.589Z,36.50
2023-04-08T04:31:02.902Z,51.10
2023-04-08T04:34:29.980Z,46.30
2023-04-08T04:37:56.974Z,40.50
2023-04-08T04:41:23.992Z,38.90
2023-04-08T04:44:51.170Z,36.00
2023-04-08T04:48:18.083Z,33.10
2023-04-08T04:51:45.284Z,34.70
2023-04-08T04:55:13.325Z,33.30
2023-04-08T04:58:40.070Z,37.90
2023-04-08T05:02:07.119Z,36.30
2023-04-08T05:05:34.206Z,34.30
2023-04-08T05:09:01.329Z,34.00
2023-04-08T05:12:29.424Z,34.50
2023-04-08T05:15:56.521Z,35.30
2023-04-08T05:19:23.935Z,32.90
2023-04-08T05:22:52.175Z,32.60
2023-04-08T05:26:20.366Z,35.00
2023-04-08T05:29:47.470Z,38.40
2023-04-08T05:33:14.642Z,35.60
2023-04-08T05:36:42.293Z,36.70
2023-04-08T05:40:11.509Z,34.80
2023-04-08T05:43:38.551Z,34.80
2023-04-08T05:47:05.575Z,33.80
2023-04-08T05:50:32.582Z,35.20
2023-04-08T05:53:59.665Z,33.60
2023-04-08T05:57:26.690Z,35.20
2023-04-08T06:00:55.742Z,36.20
2023-04-08T06:04:26.368Z,35.50
2023-04-08T06:07:54.462Z,34.50
2023-04-08T06:11:22.438Z,32.20
2023-04-08T06:14:50.513Z,30.10
2023-04-08T06:18:18.875Z,30.90
2023-04-08T06:21:48.816Z,30.00
2023-04-08T06:25:17.165Z,29.90
2023-04-08T06:28:46.403Z,30.50
2023-04-08T06:32:15.209Z,29.20
2023-04-08T06:35:42.575Z,31.50
2023-04-08T06:39:10.854Z,29.30
2023-04-08T06:42:41.089Z,30.60
2023-04-08T06:46:23.190Z,30.60
2023-04-08T06:49:54.645Z,26.90
2023-04-08T06:53:25.223Z,26.90
2023-04-08T06:56:53.901Z,28.90
2023-04-08T07:00:23.415Z,28.30
2023-04-08T07:03:51.326Z,28.30
2023-04-08T07:07:21.048Z,28.70
2023-04-08T07:10:51.321Z,29.80
2023-04-08T07:14:22.705Z,28.10
2023-04-08T07:17:51.356Z,28.30
2023-04-08T07:21:18.850Z,29.20
2023-04-08T07:24:49.838Z,29.60
2023-04-08T07:28:17.133Z,29.80
2023-04-08T07:31:45.629Z,25.90
2023-04-08T07:35:12.893Z,28.50
2023-04-08T07:38:39.866Z,27.40
2023-04-08T07:42:07.026Z,32.00
2023-04-08T07:45:34.081Z,31.90
2023-04-08T07:49:01.319Z,30.90
2023-04-08T07:52:28.113Z,32.50
2023-04-08T07:55:54.976Z,32.30
2023-04-08T07:59:22.113Z,33.00
2023-04-08T08:02:49.440Z,27.10
2023-04-08T08:06:16.768Z,28.70
2023-04-08T08:09:43.678Z,22.70
2023-04-08T08:13:12.519Z,25.50
2023-04-08T08:16:40.005Z,23.90
2023-04-08T08:20:08.959Z,26.30
2023-04-08T08:23:36.154Z,27.30
2023-04-08T08:27:06.492Z,21.90
2023-04-08T08:30:35.476Z,24.90
2023-04-08T08:34:03.830Z,25.10
2023-04-08T08:37:31.821Z,21.00
2023-04-08T08:40:59.692Z,22.30
2023-04-08T08:44:27.277Z,22.50
2023-04-08T08:47:54.492Z,22.40
2023-04-08T08:51:22.542Z,23.60
2023-04-08T08:54:58.703Z,25.10
2023-04-08T08:58:33.418Z,23.10
2023-04-08T09:02:02.736Z,23.40
2023-04-08T09:05:48.819Z,24.70
2023-04-08T09:09:17.388Z,23.20
2023-04-08T09:12:58.890Z,19.90
2023-04-08T09:16:27.830Z,22.50
2023-04-08T09:20:12.052Z,24.30
2023-04-08T09:23:45.742Z,23.50
2023-04-08T09:27:13.979Z,24.10
2023-04-08T09:30:41.991Z,25.00
2023-04-08T09:34:16.676Z,25.40
2023-04-08T09:37:44.201Z,25.20
2023-04-08T09:41:13.819Z,23.60
2023-04-08T09:44:43.765Z,26.90
2023-04-08T09:48:22.366Z,27.00
2023-04-08T09:55:22.951Z,26.90
2023-04-08T09:59:00.226Z,27.30
2023-04-08T10:02:37.030Z,28.40
2023-04-08T10:06:05.836Z,27.10
2023-04-08T10:09:34.376Z,25.30
2023-04-08T10:13:01.737Z,23.10
2023-04-08T10:16:29.995Z,25.90
2023-04-08T10:19:58.736Z,26.10
2023-04-08T10:24:08.441Z,26.90
2023-04-08T10:27:42.969Z,27.30
2023-04-08T10:31:23.333Z,26.70
2023-04-08T10:34:56.845Z,26.50
2023-04-08T10:38:23.949Z,26.70
2023-04-08T10:41:51.827Z,27.30
2023-04-08T10:45:21.018Z,26.70
2023-04-08T10:49:00.664Z,26.40
2023-04-08T10:52:28.239Z,24.70
2023-04-08T10:55:55.513Z,27.20
2023-04-08T10:59:32.185Z,24.10
2023-04-08T11:03:04.262Z,23.10
2023-04-08T11:06:32.281Z,26.20
2023-04-08T11:10:00.894Z,25.90
2023-04-08T11:13:28.916Z,23.90
2023-04-08T11:16:56.106Z,24.00
2023-04-08T11:20:23.561Z,23.10
2023-04-08T11:23:53.584Z,24.60
2023-04-08T11:27:23.265Z,24.70
2023-04-08T11:30:50.890Z,23.40
2023-04-08T11:34:25.648Z,24.00
2023-04-08T11:37:55.723Z,24.80
2023-04-08T11:41:23.037Z,26.20
2023-04-08T11:44:49.992Z,26.00
2023-04-08T11:48:18.097Z,25.10
2023-04-08T11:51:59.578Z,26.10
2023-04-08T11:55:28.089Z,24.20
2023-04-08T11:58:55.350Z,25.00
2023-04-08T12:02:22.369Z,23.90
2023-04-08T12:05:49.844Z,24.60
2023-04-08T12:09:17.131Z,27.00
2023-04-08T12:12:44.279Z,26.70
2023-04-08T12:16:12.474Z,24.00
2023-04-08T12:19:39.281Z,28.10
2023-04-08T12:23:08.272Z,26.10
2023-04-08T12:26:35.170Z,23.40
2023-04-08T12:30:02.391Z,24.90
2023-04-08T12:33:29.630Z,26.30
2023-04-08T12:36:56.728Z,25.00
2023-04-08T12:40:24.098Z,23.70
2023-04-08T12:43:51.191Z,25.50
2023-04-08T12:47:18.392Z,22.80
2023-04-08T12:50:45.619Z,21.00
2023-04-08T12:54:12.581Z,21.10
2023-04-08T12:57:39.666Z,22.50
2023-04-08T13:01:07.474Z,18.50
2023-04-08T13:04:34.563Z,18.90
2023-04-08T13:08:01.702Z,20.30
2023-04-08T13:11:28.980Z,19.40
2023-04-08T13:14:56.333Z,19.40
2023-04-08T13:18:23.394Z,20.30
2023-04-08T13:21:50.369Z,18.00
2023-04-08T13:25:18.373Z,18.20
2023-04-08T13:28:56.630Z,16.70
2023-04-08T13:32:26.338Z,17.70
2023-04-08T13:35:55.563Z,17.90
2023-04-08T13:39:25.465Z,18.50
2023-04-08T13:42:53.774Z,18.20
2023-04-08T13:46:21.635Z,18.00
2023-04-08T13:49:49.458Z,16.00
2023-04-08T13:56:45.468Z,17.70
2023-04-08T14:00:15.826Z,17.50
2023-04-08T14:03:44.334Z,16.30
2023-04-08T14:07:12.459Z,17.80
2023-04-08T14:10:41.184Z,19.60
2023-04-08T14:14:11.478Z,18.10
2023-04-08T14:17:42.193Z,17.20
2023-04-08T14:21:11.063Z,18.30
2023-04-08T14:24:40.349Z,17.60
2023-04-08T14:28:09.318Z,17.00
2023-04-08T14:31:37.541Z,18.80
2023-04-08T14:35:07.593Z,18.50
2023-04-08T14:38:39.278Z,20.40
2023-04-08T14:42:07.471Z,18.90
2023-04-08T14:45:35.135Z,17.40
2023-04-08T14:49:02.909Z,19.90
2023-04-08T14:52:30.927Z,16.20
2023-04-08T14:55:59.422Z,19.40
2023-04-08T14:59:26.899Z,18.90
2023-04-08T15:02:53.985Z,16.20
2023-04-08T15:06:21.870Z,16.90
2023-04-08T15:09:49.246Z,19.40
2023-04-08T15:13:18.540Z,17.30
2023-04-08T15:16:46.543Z,17.30
2023-04-08T15:20:15.732Z,17.20
2023-04-08T15:23:44.317Z,18.70
2023-04-08T15:27:11.739Z,18.20
2023-04-08T15:30:39.322Z,18.80
2023-04-08T15:34:06.622Z,17.80
2023-04-08T15:37:34.354Z,17.70
2023-04-08T15:41:02.375Z,17.40
2023-04-08T15:44:33.731Z,17.20
2023-04-08T15:48:01.389Z,18.40
2023-04-08T15:51:28.901Z,16.60
2023-04-08T15:54:55.953Z,17.80
2023-04-08T15:58:23.032Z,16.40
2023-04-08T16:01:50.077Z,17.00
2023-04-08T16:05:17.115Z,16.40
2023-04-08T16:08:44.832Z,17.30
2023-04-08T16:12:12.068Z,17.30
2023-04-08T16:15:39.097Z,18.00
2023-04-08T16:19:07.559Z,16.00
2023-04-08T16:22:35.419Z,19.60
2023-04-08T16:26:03.562Z,20.20
2023-04-08T16:29:31.563Z,18.70
2023-04-08T16:32:59.019Z,20.90
2023-04-08T16:36:26.301Z,20.20
2023-04-08T16:39:54.753Z,21.40
2023-04-08T16:43:22.888Z,18.10
2023-04-08T16:46:51.022Z,19.40
2023-04-08T16:50:18.682Z,18.40
2023-04-08T16:53:46.784Z,20.30
2023-04-08T16:57:15.065Z,23.80
2023-04-08T17:00:42.623Z,31.20
2023-04-08T17:04:10.320Z,24.40
2023-04-08T17:07:40.022Z,22.20
2023-04-08T17:11:12.761Z,23.10
2023-04-08T17:14:41.328Z,21.20
2023-04-08T17:18:08.725Z,22.10
2023-04-08T17:21:36.886Z,21.10
2023-04-08T17:25:04.906Z,26.10
2023-04-08T17:28:32.613Z,23.10
2023-04-08T17:32:00.381Z,25.10
2023-04-08T17:35:28.663Z,23.20
2023-04-08T17:38:56.333Z,25.10
2023-04-08T17:42:24.405Z,23.10
2023-04-08T17:45:51.757Z,21.20
2023-04-08T17:49:18.975Z,24.10
2023-04-08T17:52:47.894Z,33.80
2023-04-08T17:56:15.088Z,29.60
2023-04-08T17:59:42.723Z,25.90
2023-04-08T18:03:10.842Z,26.50
2023-04-08T18:06:38.487Z,30.30
2023-04-08T18:10:08.580Z,33.30
2023-04-08T18:13:36.592Z,30.90
2023-04-08T18:17:05.447Z,26.10
2023-04-08T18:20:35.800Z,26.30
2023-04-08T18:24:03.654Z,45.50
2023-04-08T18:27:30.928Z,42.30
2023-04-08T18:30:58.302Z,44.20
2023-04-08T18:34:26.840Z,38.70
2023-04-08T18:37:54.068Z,41.10
2023-04-08T18:41:24.269Z,38.60
2023-04-08T18:44:51.950Z,61.40
2023-04-08T18:48:19.592Z,56.40
2023-04-08T18:51:58.995Z,47.40
2023-04-08T18:55:30.396Z,45.20
2023-04-08T18:58:57.775Z,49.10
2023-04-08T19:02:25.929Z,47.60
2023-04-08T19:05:53.853Z,49.10
2023-04-08T19:09:22.121Z,50.50
2023-04-08T19:12:49.856Z,54.10
2023-04-08T19:16:17.508Z,46.40
2023-04-08T19:19:46.865Z,46.70
2023-04-08T19:23:15.538Z,46.80
2023-04-08T19:26:43.309Z,51.70
2023-04-08T19:30:12.733Z,58.50
2023-04-08T19:33:40.199Z,56.80
2023-04-08T19:37:08.769Z,56.50
2023-04-08T19:40:35.893Z,57.40
2023-04-08T19:44:03.425Z,52.20
2023-04-08T19:47:30.964Z,65.00
2023-04-08T19:50:58.495Z,73.60
2023-04-08T19:54:30.202Z,71.20
2023-04-08T19:57:59.440Z,67.30
2023-04-08T20:01:28.138Z,78.60
2023-04-08T20:04:55.167Z,68.60
2023-04-08T20:08:22.015Z,69.40
2023-04-08T20:11:48.987Z,61.00
2023-04-08T20:15:24.095Z,55.60
2023-04-08T20:18:52.442Z,50.60
2023-04-08T20:22:19.611Z,55.30
2023-04-08T20:25:46.632Z,58.60
2023-04-08T20:29:13.604Z,60.00
2023-04-08T20:32:40.724Z,58.20
2023-04-08T20:36:07.975Z,58.90
2023-04-08T20:39:34.783Z,55.50
2023-04-08T20:43:02.434Z,52.90
2023-04-08T20:46:29.547Z,50.90
2023-04-08T20:49:56.565Z,55.50
2023-04-08T20:53:23.844Z,57.90
2023-04-08T20:56:50.765Z,54.00
2023-04-08T21:00:18.236Z,60.10
2023-04-08T21:03:45.359Z,54.70
2023-04-08T21:07:12.195Z,57.20
2023-04-08T21:10:39.457Z,54.70
2023-04-08T21:14:06.325Z,60.10
2023-04-08T21:17:33.351Z,64.50
2023-04-08T21:21:00.516Z,67.30
2023-04-08T21:24:28.580Z,61.90
2023-04-08T21:27:55.548Z,63.70
2023-04-08T21:31:22.496Z,60.90
2023-04-08T21:34:49.413Z,62.90
2023-04-08T21:38:16.422Z,61.50
2023-04-08T21:41:43.879Z,65.50
2023-04-08T21:45:13.260Z,60.40
2023-04-08T21:48:40.117Z,68.30
2023-04-08T21:52:07.262Z,63.40
2023-04-08T21:55:34.135Z,58.70
2023-04-08T21:59:01.179Z,56.40
2023-04-08T22:02:28.528Z,61.40
2023-04-08T22:05:56.359Z,55.60
2023-04-08T22:09:23.312Z,56.80
2023-04-08T22:12:50.348Z,52.50
2023-04-08T22:16:17.183Z,58.10
2023-04-08T22:19:44.142Z,70.50
2023-04-08T22:23:10.978Z,75.80
2023-04-08T22:26:37.805Z,69.10
2023-04-08T22:30:05.522Z,62.40
2023-04-08T22:33:32.470Z,59.80
2023-04-08T22:36:59.607Z,51.00
2023-04-08T22:40:26.730Z,53.80
2023-04-08T22:43:54.012Z,48.40
2023-04-08T22:47:21.408Z,49.70
2023-04-08T22:50:48.210Z,50.80
2023-04-08T22:54:19.022Z,48.80
2023-04-08T22:57:47.039Z,50.10
2023-04-08T23:01:17.218Z,45.40
2023-04-08T23:04:44.176Z,49.30
2023-04-08T23:08:11.202Z,48.00
2023-04-08T23:11:38.103Z,47.50
2023-04-08T23:15:05.892Z,49.10
2023-04-08T23:18:32.902Z,44.60
2023-04-08T23:21:59.921Z,47.00
2023-04-08T23:25:27.000Z,46.00
2023-04-08T23:28:54.244Z,46.20
2023-04-08T23:32:21.304Z,46.10
2023-04-08T23:35:48.294Z,39.80
2023-04-08T23:39:15.786Z,43.20
2023-04-08T23:42:42.873Z,43.80
2023-04-08T23:46:09.995Z,45.10
2023-04-08T23:49:37.137Z,44.70
2023-04-08T23:53:04.767Z,42.00
2023-04-08T23:56:31.924Z,45.70
2023-04-08T23:59:59.725Z,32.50
